Time;durP1;ratioP1;P1;durP2;ratioP2;P2;SDS_P1;SDS_P2;PMS_P1;PMS_P2;Temp;Humidity;BMP_temperature;BMP_pressure;BME280_temperature;BME280_humidity;BME280_pressure;Samples;Min_cycle;Max_cycle;Signal;HPM_P1;HPM_P2
2021/12/08 00:01:45;;;;;;;;;22.00;22.00;15.70;99.90;;;;;;5049251;28;11525;-56
2021/12/08 00:04:16;;;;;;;;;22.00;22.00;15.70;99.90;;;;;;5068142;28;11705;-55
2021/12/08 00:06:47;;;;;;;;;22.25;22.25;15.70;99.90;;;;;;5069469;28;11492;-54
2021/12/08 00:09:27;;;;;;;;;20.00;20.00;15.70;99.90;;;;;;5066782;28;11599;-56
2021/12/08 00:14:45;;;;;;;;;18.25;18.25;15.70;99.90;;;;;;5070253;28;11583;-56
2021/12/08 00:17:15;;;;;;;;;19.50;19.50;15.70;99.90;;;;;;5060570;28;11510;-55
2021/12/08 00:19:45;;;;;;;;;20.00;20.00;15.70;99.90;;;;;;5063685;28;11491;-53
2021/12/08 00:22:17;;;;;;;;;21.00;21.00;15.70;99.90;;;;;;5063032;28;11475;-53
2021/12/08 00:24:47;;;;;;;;;24.25;24.25;15.70;99.90;;;;;;5068259;28;11510;-52
2021/12/08 00:27:17;;;;;;;;;19.00;18.25;15.70;99.90;;;;;;5064409;28;11535;-56
2021/12/08 00:29:47;;;;;;;;;18.25;18.00;15.60;99.90;;;;;;5067212;28;11523;-58
2021/12/08 00:32:20;;;;;;;;;21.25;21.25;15.70;99.90;;;;;;5060329;28;12181;-58
2021/12/08 00:34:50;;;;;;;;;22.50;22.50;15.60;99.90;;;;;;5059874;28;12707;-58
2021/12/08 00:37:23;;;;;;;;;24.00;24.00;15.60;99.90;;;;;;5064893;28;11533;-56
2021/12/08 00:39:53;;;;;;;;;22.25;21.00;15.60;99.90;;;;;;5058620;28;11488;-54
2021/12/08 00:42:25;;;;;;;;;22.75;22.75;15.60;99.90;;;;;;5066089;28;11568;-57
2021/12/08 00:44:55;;;;;;;;;18.00;18.00;15.60;99.90;;;;;;5060251;28;11520;-57
2021/12/08 00:47:26;;;;;;;;;22.50;22.50;15.70;99.90;;;;;;5061472;28;11534;-58
2021/12/08 00:49:56;;;;;;;;;25.50;25.50;15.60;99.90;;;;;;5060429;28;11654;-56
2021/12/08 00:52:28;;;;;;;;;18.25;18.25;15.50;99.90;;;;;;5064981;28;11532;-54
2021/12/08 00:55:00;;;;;;;;;23.00;23.00;15.50;99.90;;;;;;5058822;28;11489;-54
2021/12/08 00:57:31;;;;;;;;;20.50;20.50;15.50;99.90;;;;;;5061442;28;11561;-57
2021/12/08 01:00:05;;;;;;;;;23.75;22.00;15.50;99.90;;;;;;5065753;28;12308;-54
2021/12/08 01:02:39;;;;;;;;;19.25;19.25;15.50;99.90;;;;;;5061156;28;11499;-54
2021/12/08 01:05:24;;;;;;;;;22.50;22.50;15.50;99.90;;;;;;5061529;28;11534;-57
2021/12/08 01:07:55;;;;;;;;;22.25;22.25;15.40;99.90;;;;;;5059814;28;11528;-57
2021/12/08 01:10:29;;;;;;;;;20.50;20.50;15.40;99.90;;;;;;5063582;28;12134;-57
2021/12/08 01:13:06;;;;;;;;;21.00;21.00;15.40;99.90;;;;;;5063927;28;11510;-57
2021/12/08 01:15:40;;;;;;;;;22.25;21.25;15.40;99.90;;;;;;5056226;28;11531;-56
2021/12/08 01:18:10;;;;;;;;;23.00;22.50;15.30;99.90;;;;;;5064793;28;11511;-56
2021/12/08 01:20:41;;;;;;;;;25.75;24.75;15.30;99.90;;;;;;5066916;28;11561;-55
2021/12/08 01:23:16;;;;;;;;;19.25;19.25;15.30;99.90;;;;;;5059896;28;11626;-55
2021/12/08 01:25:46;;;;;;;;;18.75;18.75;15.30;99.90;;;;;;5059058;28;11509;-55
2021/12/08 01:28:20;;;;;;;;;21.00;21.00;15.30;99.90;;;;;;5063889;28;11496;-56
2021/12/08 01:30:54;;;;;;;;;19.00;19.00;15.30;99.90;;;;;;5057211;28;11454;-55
2021/12/08 01:33:24;;;;;;;;;20.00;20.00;15.30;99.90;;;;;;5070001;28;11543;-55
2021/12/08 01:35:55;;;;;;;;;22.00;22.00;15.30;99.90;;;;;;5063030;28;11541;-55
2021/12/08 01:38:27;;;;;;;;;22.50;22.50;15.30;99.90;;;;;;5060243;28;11449;-57
2021/12/08 01:40:58;;;;;;;;;18.00;18.00;15.30;99.90;;;;;;5073579;28;11500;-56
2021/12/08 01:43:40;;;;;;;;;21.00;21.00;15.30;99.90;;;;;;5065365;28;11475;-61
2021/12/08 01:46:15;;;;;;;;;22.00;22.00;15.30;99.90;;;;;;5069854;28;11463;-57
2021/12/08 01:48:47;;;;;;;;;28.00;27.50;15.30;99.90;;;;;;5074562;28;11481;-59
2021/12/08 01:51:20;;;;;;;;;28.75;28.75;15.30;99.90;;;;;;5069642;28;12382;-59
2021/12/08 01:53:55;;;;;;;;;28.75;27.50;15.20;99.90;;;;;;5063278;28;11585;-56
2021/12/08 01:56:25;;;;;;;;;26.50;25.00;15.20;99.90;;;;;;5066245;28;11548;-55
2021/12/08 01:58:56;;;;;;;;;24.50;24.50;15.20;99.90;;;;;;5066157;28;11505;-53
2021/12/08 02:01:29;;;;;;;;;24.25;24.25;15.20;99.90;;;;;;5073158;28;11481;-54
2021/12/08 02:04:04;;;;;;;;;17.50;17.50;15.20;99.90;;;;;;5065380;28;11490;-56
2021/12/08 02:06:45;;;;;;;;;24.00;23.50;15.20;99.90;;;;;;5068921;28;11509;-52
2021/12/08 02:09:17;;;;;;;;;23.25;23.25;15.20;99.90;;;;;;5068003;28;12198;-53
2021/12/08 02:11:52;;;;;;;;;23.50;22.75;15.10;99.90;;;;;;5069700;28;11654;-53
2021/12/08 02:14:24;;;;;;;;;26.50;23.00;15.10;99.90;;;;;;5063330;28;11521;-54
2021/12/08 02:16:55;;;;;;;;;29.50;27.25;15.10;99.90;;;;;;5061360;28;11485;-57
2021/12/08 02:19:26;;;;;;;;;29.00;29.00;15.10;99.90;;;;;;5065807;28;11575;-54
2021/12/08 02:21:58;;;;;;;;;29.75;28.75;15.00;99.90;;;;;;5061072;28;12147;-54
2021/12/08 02:24:28;;;;;;;;;26.00;26.00;15.00;99.90;;;;;;5061605;28;12257;-58
2021/12/08 02:26:59;;;;;;;;;27.75;27.75;15.00;99.90;;;;;;5067693;28;11531;-55
2021/12/08 02:29:54;;;;;;;;;25.25;25.25;15.00;99.90;;;;;;5074755;28;11737;-50
2021/12/08 02:48:41;;;;;;;;;29.50;27.75;14.90;99.90;;;;;;5063574;28;12344;-57
2021/12/08 02:51:12;;;;;;;;;29.75;29.75;14.90;99.90;;;;;;5055244;28;11537;-56
2021/12/08 02:53:43;;;;;;;;;31.00;30.75;14.90;99.90;;;;;;5059345;28;11595;-55
2021/12/08 02:56:14;;;;;;;;;33.50;30.50;14.90;99.90;;;;;;5060393;28;11554;-56
2021/12/08 02:58:48;;;;;;;;;29.50;29.50;14.90;99.90;;;;;;5058404;28;11524;-56
2021/12/08 03:01:19;;;;;;;;;32.25;31.50;14.80;99.90;;;;;;5058802;28;11573;-56
2021/12/08 03:03:52;;;;;;;;;29.00;29.00;14.80;99.90;;;;;;5062885;28;11563;-53
2021/12/08 03:06:22;;;;;;;;;31.00;31.00;14.80;99.90;;;;;;5068295;28;11556;-53
2021/12/08 03:08:54;;;;;;;;;30.75;30.50;14.70;99.90;;;;;;5069199;28;11539;-56
2021/12/08 03:11:26;;;;;;;;;33.00;32.00;14.80;99.90;;;;;;5055431;28;11554;-57
2021/12/08 03:14:15;;;;;;;;;35.75;33.50;14.80;99.90;;;;;;5066187;28;11573;-55
2021/12/08 03:16:59;;;;;;;;;36.50;34.00;14.80;99.90;;;;;;5062156;28;12268;-57
2021/12/08 03:19:31;;;;;;;;;30.50;30.00;14.70;99.90;;;;;;5058393;28;11562;-60
2021/12/08 03:22:09;;;;;;;;;35.25;33.25;14.70;99.90;;;;;;5063259;28;11545;-56
2021/12/08 03:24:43;;;;;;;;;33.50;30.75;14.70;99.90;;;;;;5060942;28;12248;-55
2021/12/08 03:27:18;;;;;;;;;30.50;30.50;14.70;99.90;;;;;;5067611;28;12294;-55
2021/12/08 03:29:57;;;;;;;;;34.75;33.25;14.70;99.90;;;;;;5063171;28;11694;-55
2021/12/08 03:32:37;;;;;;;;;30.50;29.25;14.60;99.90;;;;;;5062560;28;11553;-54
2021/12/08 03:35:12;;;;;;;;;28.25;27.25;14.50;99.90;;;;;;5063202;28;11566;-55
2021/12/08 03:37:45;;;;;;;;;31.50;29.25;14.50;99.90;;;;;;5065980;28;11566;-55
2021/12/08 03:40:22;;;;;;;;;34.25;32.50;14.50;99.90;;;;;;5064124;28;12225;-55
2021/12/08 03:42:55;;;;;;;;;37.00;32.75;14.50;99.90;;;;;;5059567;28;11563;-56
2021/12/08 03:45:34;;;;;;;;;32.50;31.50;14.50;99.90;;;;;;5057378;28;11553;-56
2021/12/08 03:48:10;;;;;;;;;33.50;32.50;14.50;99.90;;;;;;5062240;28;11655;-56
2021/12/08 03:50:44;;;;;;;;;35.50;33.00;14.50;99.90;;;;;;5056334;28;11597;-56
2021/12/08 03:53:16;;;;;;;;;31.25;30.75;14.40;99.90;;;;;;5056758;28;11629;-56
2021/12/08 03:55:49;;;;;;;;;33.50;31.25;14.40;99.90;;;;;;5054655;28;11578;-55
2021/12/08 03:58:19;;;;;;;;;28.00;28.00;14.50;99.90;;;;;;5059588;28;12246;-56
2021/12/08 04:00:56;;;;;;;;;27.75;27.75;14.50;99.90;;;;;;5056970;28;11603;-54
2021/12/08 04:03:30;;;;;;;;;31.75;31.00;14.40;99.90;;;;;;5064223;28;11557;-55
2021/12/08 04:06:14;;;;;;;;;31.75;31.00;14.40;99.90;;;;;;5063596;28;11696;-54
2021/12/08 04:08:54;;;;;;;;;27.50;25.75;14.30;99.90;;;;;;5063852;28;11542;-55
2021/12/08 04:11:27;;;;;;;;;28.75;28.75;14.40;99.90;;;;;;5058828;28;11587;-56
2021/12/08 04:14:04;;;;;;;;;32.50;31.50;14.30;99.90;;;;;;5065721;28;11582;-55
2021/12/08 04:16:38;;;;;;;;;28.75;28.75;14.30;99.90;;;;;;5066410;28;11574;-55
2021/12/08 04:19:09;;;;;;;;;28.50;28.25;14.30;99.90;;;;;;5063714;28;11562;-55
2021/12/08 04:21:42;;;;;;;;;25.75;25.75;14.30;99.90;;;;;;5058086;28;11597;-55
2021/12/08 04:24:14;;;;;;;;;31.50;30.75;14.30;99.90;;;;;;5060000;28;11536;-55
2021/12/08 04:26:55;;;;;;;;;30.50;30.50;14.30;99.90;;;;;;5053231;28;11559;-56
2021/12/08 04:29:32;;;;;;;;;31.00;31.00;14.30;99.90;;;;;;5063341;28;11729;-55
2021/12/08 04:32:03;;;;;;;;;32.50;31.50;14.30;99.90;;;;;;5055239;28;11584;-55
2021/12/08 04:34:40;;;;;;;;;30.00;29.75;14.20;99.90;;;;;;5055739;28;11582;-54
2021/12/08 04:37:22;;;;;;;;;31.25;27.50;14.10;99.90;;;;;;5061047;28;11558;-55
2021/12/08 04:40:27;;;;;;;;;31.50;31.25;14.20;99.90;;;;;;5061349;28;11535;-55
2021/12/08 04:43:15;;;;;;;;;34.00;32.75;14.20;99.90;;;;;;5063824;28;11560;-55
2021/12/08 04:46:04;;;;;;;;;32.25;31.50;14.10;99.90;;;;;;5059379;28;11551;-55
2021/12/08 05:07:48;;;;;;;;;26.75;25.25;14.00;99.90;;;;;;5062852;28;11610;-54
2021/12/08 05:10:24;;;;;;;;;29.50;29.50;14.00;99.90;;;;;;5066749;28;11610;-54
2021/12/08 05:12:56;;;;;;;;;31.25;29.50;14.00;99.90;;;;;;5060359;28;12250;-50
2021/12/08 05:15:36;;;;;;;;;21.75;21.75;14.00;99.90;;;;;;5065146;28;11599;-53
2021/12/08 05:18:23;;;;;;;;;36.00;33.25;14.00;99.90;;;;;;5068056;28;11564;-57
2021/12/08 05:21:13;;;;;;;;;32.50;30.50;13.90;99.90;;;;;;5059612;28;11589;-56
2021/12/08 05:23:57;;;;;;;;;29.00;29.00;13.90;99.90;;;;;;5062962;28;11531;-55
2021/12/08 05:26:33;;;;;;;;;27.50;27.50;13.90;99.90;;;;;;5063301;28;11522;-55
2021/12/08 05:29:16;;;;;;;;;31.00;30.75;13.90;99.90;;;;;;5059809;28;11593;-54
2021/12/08 05:31:48;;;;;;;;;29.75;28.75;13.80;99.90;;;;;;5056299;28;11609;-55
2021/12/08 05:34:22;;;;;;;;;34.25;32.75;13.80;99.90;;;;;;5069303;28;11592;-56
2021/12/08 05:36:51;;;;;;;;;31.00;30.75;13.80;99.90;;;;;;5058995;28;11605;-56
2021/12/08 05:39:25;;;;;;;;;34.25;32.75;13.80;99.90;;;;;;5059898;28;11638;-54
2021/12/08 05:42:03;;;;;;;;;31.50;31.00;13.80;99.90;;;;;;5063053;28;11578;-54
2021/12/08 05:44:35;;;;;;;;;28.50;28.50;13.70;99.90;;;;;;5060992;28;11547;-55
2021/12/08 05:47:09;;;;;;;;;29.25;29.25;13.70;99.90;;;;;;5061132;28;11588;-55
2021/12/08 05:49:39;;;;;;;;;29.75;29.75;13.70;99.90;;;;;;5060626;28;11568;-54
2021/12/08 05:52:12;;;;;;;;;27.50;27.50;13.60;99.90;;;;;;5057767;28;11576;-54
2021/12/08 05:54:46;;;;;;;;;28.75;27.50;13.60;99.90;;;;;;5077097;27;12179;-53
2021/12/08 05:57:32;;;;;;;;;27.00;27.00;13.60;99.90;;;;;;5059621;28;11613;-52
2021/12/08 06:00:14;;;;;;;;;26.00;25.50;13.60;99.90;;;;;;5063601;28;12319;-53
2021/12/08 06:02:44;;;;;;;;;24.00;24.00;13.70;99.90;;;;;;5067432;28;11578;-53
2021/12/08 06:05:16;;;;;;;;;29.75;29.75;13.70;99.90;;;;;;5057067;28;11516;-52
2021/12/08 06:07:46;;;;;;;;;30.75;30.75;13.60;99.90;;;;;;5066017;28;11562;-51
2021/12/08 06:10:27;;;;;;;;;24.50;24.50;13.60;99.90;;;;;;5060660;28;11577;-51
2021/12/08 06:12:57;;;;;;;;;24.75;24.75;13.50;99.90;;;;;;5062555;28;11571;-51
2021/12/08 06:15:28;;;;;;;;;29.50;29.50;13.50;99.90;;;;;;5059781;28;11586;-53
2021/12/08 06:17:57;;;;;;;;;23.50;23.50;13.50;99.90;;;;;;5066887;28;12292;-48
2021/12/08 06:20:35;;;;;;;;;26.50;26.00;13.50;99.90;;;;;;5063745;28;11592;-52
2021/12/08 06:23:07;;;;;;;;;25.00;24.00;13.50;99.90;;;;;;5054788;28;11550;-52
2021/12/08 06:25:41;;;;;;;;;30.50;30.50;13.50;99.90;;;;;;5070007;28;11581;-49
2021/12/08 06:28:11;;;;;;;;;38.50;35.75;13.50;99.90;;;;;;5076969;28;11564;-53
2021/12/08 06:30:47;;;;;;;;;39.00;36.00;13.50;99.90;;;;;;5072768;28;11553;-53
2021/12/08 06:33:20;;;;;;;;;49.25;40.50;13.50;99.90;;;;;;5066204;28;11582;-54
2021/12/08 06:36:06;;;;;;;;;43.25;38.25;13.40;99.90;;;;;;5059977;28;11673;-53
2021/12/08 06:38:37;;;;;;;;;27.75;27.75;13.40;99.90;;;;;;5063751;28;11600;-53
2021/12/08 06:41:13;;;;;;;;;27.75;27.75;13.30;99.90;;;;;;5060023;28;11575;-53
2021/12/08 06:43:48;;;;;;;;;25.75;25.75;13.30;99.90;;;;;;5067490;28;11531;-53
2021/12/08 06:46:19;;;;;;;;;22.75;22.75;13.30;99.90;;;;;;5078725;28;11536;-54
2021/12/08 06:48:53;;;;;;;;;26.25;26.25;13.30;99.90;;;;;;5062582;28;11536;-53
2021/12/08 06:51:33;;;;;;;;;26.50;26.50;13.30;99.90;;;;;;5076213;28;11570;-53
2021/12/08 06:54:15;;;;;;;;;25.25;25.25;13.30;99.90;;;;;;5067958;28;11542;-54
2021/12/08 06:56:52;;;;;;;;;25.50;25.50;13.20;99.90;;;;;;5067212;28;11550;-52
2021/12/08 06:59:33;;;;;;;;;22.00;22.00;13.20;99.90;;;;;;5070890;27;11637;-51
2021/12/08 07:02:19;;;;;;;;;27.25;27.25;13.20;99.90;;;;;;5070178;28;11546;-54
2021/12/08 07:05:07;;;;;;;;;29.25;29.25;13.20;99.90;;;;;;5070826;28;11561;-52
2021/12/08 07:07:43;;;;;;;;;32.50;30.75;13.20;99.90;;;;;;5071972;28;11711;-51
2021/12/08 07:10:19;;;;;;;;;26.25;26.25;13.20;99.90;;;;;;5063398;28;11743;-51
2021/12/08 07:12:59;;;;;;;;;25.75;25.75;13.20;99.90;;;;;;5066361;28;11615;-49
2021/12/08 07:15:40;;;;;;;;;27.25;24.75;13.20;99.90;;;;;;5071956;28;11576;-53
2021/12/08 07:18:16;;;;;;;;;32.00;30.50;13.20;99.90;;;;;;5064951;28;11594;-52
2021/12/08 07:20:52;;;;;;;;;33.25;32.25;13.20;99.90;;;;;;5060854;27;11602;-51
2021/12/08 07:23:38;;;;;;;;;35.00;33.25;13.10;99.90;;;;;;5065370;28;11558;-49
2021/12/08 07:26:25;;;;;;;;;37.50;35.25;13.10;99.90;;;;;;5058356;28;11573;-52
2021/12/08 07:29:01;;;;;;;;;38.00;34.75;13.10;99.90;;;;;;5066384;28;11590;-50
2021/12/08 07:31:47;;;;;;;;;32.00;31.75;13.10;99.90;;;;;;5056495;28;11539;-55
2021/12/08 07:34:25;;;;;;;;;31.25;31.25;13.10;99.90;;;;;;5062819;28;11563;-55
2021/12/08 07:37:03;;;;;;;;;33.75;32.75;13.10;99.90;;;;;;5063101;28;11561;-55
2021/12/08 07:39:43;;;;;;;;;31.00;31.00;13.00;99.90;;;;;;5066057;28;11558;-54
2021/12/08 07:42:24;;;;;;;;;31.00;29.00;13.00;99.90;;;;;;5058185;28;11628;-55
2021/12/08 07:44:59;;;;;;;;;30.25;30.25;13.00;99.90;;;;;;5064161;28;13751;-54
2021/12/08 07:47:31;;;;;;;;;28.25;28.25;13.00;99.90;;;;;;5067782;28;11547;-55
2021/12/08 07:50:14;;;;;;;;;31.75;30.25;13.00;99.90;;;;;;5061204;28;11599;-55
2021/12/08 07:52:45;;;;;;;;;27.75;27.75;13.00;99.90;;;;;;5059349;28;11077;-55
2021/12/08 07:55:42;;;;;;;;;31.50;30.50;13.00;99.90;;;;;;5065004;28;11577;-55
2021/12/08 07:58:13;;;;;;;;;31.25;30.25;12.90;99.90;;;;;;5061380;28;11579;-55
2021/12/08 08:00:50;;;;;;;;;29.25;28.50;12.90;99.90;;;;;;5066768;28;11736;-55
2021/12/08 08:03:23;;;;;;;;;33.00;31.00;12.80;99.90;;;;;;5066351;28;11563;-54
2021/12/08 08:05:56;;;;;;;;;31.75;30.25;12.80;99.90;;;;;;5054400;28;11580;-54
2021/12/08 08:08:31;;;;;;;;;29.25;29.25;12.70;99.90;;;;;;5071157;28;11587;-56
2021/12/08 08:11:11;;;;;;;;;30.00;27.50;12.70;99.90;;;;;;5064795;28;11589;-56
2021/12/08 08:13:41;;;;;;;;;31.25;31.00;12.70;99.90;;;;;;5061007;28;11582;-56
2021/12/08 08:16:21;;;;;;;;;30.50;29.75;12.70;99.90;;;;;;5063946;28;11576;-55
2021/12/08 08:18:58;;;;;;;;;33.75;31.25;12.70;99.90;;;;;;5063273;28;11587;-54
2021/12/08 08:21:31;;;;;;;;;31.75;31.50;12.60;99.90;;;;;;5059113;28;11604;-56
2021/12/08 08:24:01;;;;;;;;;30.75;30.75;12.60;99.90;;;;;;5064865;28;11546;-56
2021/12/08 08:26:34;;;;;;;;;25.50;25.50;12.60;99.90;;;;;;5061220;28;11596;-54
2021/12/08 08:29:07;;;;;;;;;27.50;27.50;12.70;99.90;;;;;;5062664;28;11575;-57
2021/12/08 08:31:41;;;;;;;;;32.00;27.50;12.70;99.90;;;;;;5060679;28;11570;-56
2021/12/08 08:34:13;;;;;;;;;23.25;23.25;12.70;99.90;;;;;;5062161;28;11541;-55
2021/12/08 08:36:46;;;;;;;;;25.00;25.00;12.70;99.90;;;;;;5062416;28;11575;-55
2021/12/08 08:39:31;;;;;;;;;26.50;26.50;12.70;99.90;;;;;;5067551;28;11566;-55
2021/12/08 08:42:15;;;;;;;;;27.25;27.25;12.70;99.90;;;;;;5058799;28;11579;-56
2021/12/08 08:44:53;;;;;;;;;27.75;27.75;12.60;99.90;;;;;;5064629;28;11589;-56
2021/12/08 08:47:30;;;;;;;;;27.50;27.50;12.50;99.90;;;;;;5063540;28;11615;-58
2021/12/08 08:50:02;;;;;;;;;33.00;31.50;12.60;99.90;;;;;;5067989;28;12381;-55
2021/12/08 08:52:37;;;;;;;;;32.25;31.00;12.60;99.90;;;;;;5062697;28;11591;-55
2021/12/08 08:55:32;;;;;;;;;23.25;21.50;12.60;99.90;;;;;;5062018;28;11602;-55
2021/12/08 08:58:07;;;;;;;;;28.25;28.25;12.60;99.90;;;;;;5065167;28;11551;-55
2021/12/08 09:00:47;;;;;;;;;32.25;31.75;12.70;99.90;;;;;;5059016;28;11564;-56
2021/12/08 09:03:21;;;;;;;;;34.00;33.00;12.70;99.90;;;;;;5060071;28;11818;-54
2021/12/08 09:06:00;;;;;;;;;30.75;29.75;12.60;99.90;;;;;;5063586;28;11565;-56
2021/12/08 09:08:32;;;;;;;;;29.75;29.75;12.60;99.90;;;;;;5055843;28;11603;-54
2021/12/08 09:11:17;;;;;;;;;30.75;30.50;12.60;99.90;;;;;;5063697;28;11540;-56
2021/12/08 09:14:00;;;;;;;;;32.25;30.00;12.60;99.90;;;;;;5059134;28;13761;-54
2021/12/08 09:16:38;;;;;;;;;26.25;22.50;12.60;99.90;;;;;;5057822;28;11598;-55
2021/12/08 09:19:13;;;;;;;;;30.50;30.50;12.60;99.90;;;;;;5057725;28;11574;-55
2021/12/08 09:21:57;;;;;;;;;28.25;27.75;12.60;99.90;;;;;;5061233;28;11607;-55
2021/12/08 09:24:48;;;;;;;;;28.50;28.50;12.60;99.90;;;;;;5061953;28;11714;-54
2021/12/08 09:27:25;;;;;;;;;27.00;27.00;12.60;99.90;;;;;;5062744;28;11545;-55
2021/12/08 09:30:10;;;;;;;;;26.50;26.50;12.60;99.90;;;;;;5056270;28;11595;-54
2021/12/08 09:33:00;;;;;;;;;25.25;25.25;12.60;99.90;;;;;;5059234;28;11564;-56
2021/12/08 09:35:39;;;;;;;;;31.25;30.75;12.60;99.90;;;;;;5060148;28;11526;-55
2021/12/08 09:38:39;;;;;;;;;27.50;27.50;12.60;99.90;;;;;;5061524;28;12360;-54
2021/12/08 09:41:16;;;;;;;;;30.25;28.50;12.70;99.90;;;;;;5054362;28;11560;-56
2021/12/08 09:43:56;;;;;;;;;26.00;26.00;12.60;99.90;;;;;;5052053;28;11728;-55
2021/12/08 09:46:47;;;;;;;;;24.50;24.25;12.60;99.90;;;;;;5068326;28;11598;-56
2021/12/08 09:49:23;;;;;;;;;26.00;26.00;12.60;99.90;;;;;;5067341;28;11581;-54
2021/12/08 09:51:56;;;;;;;;;25.75;25.75;12.70;99.90;;;;;;5056896;28;12871;-55
2021/12/08 09:54:29;;;;;;;;;25.75;24.00;12.70;99.90;;;;;;5063377;28;11649;-55
2021/12/08 09:57:06;;;;;;;;;24.75;24.75;12.80;99.90;;;;;;5052581;28;11576;-56
2021/12/08 09:59:45;;;;;;;;;31.50;28.00;12.70;99.90;;;;;;5065702;28;11566;-56
2021/12/08 10:02:25;;;;;;;;;33.25;31.50;12.70;99.90;;;;;;5063817;28;11697;-56
2021/12/08 10:04:58;;;;;;;;;27.50;24.75;12.80;99.90;;;;;;5057794;27;11738;-56
2021/12/08 10:07:31;;;;;;;;;31.00;31.00;12.80;99.90;;;;;;5052253;28;11586;-57
2021/12/08 10:10:01;;;;;;;;;22.25;21.75;12.80;99.90;;;;;;5065053;28;11547;-55
2021/12/08 10:12:34;;;;;;;;;24.75;24.00;12.80;99.90;;;;;;5057858;28;11572;-54
2021/12/08 10:15:10;;;;;;;;;29.25;29.25;12.80;99.90;;;;;;5070285;28;11529;-54
2021/12/08 10:17:40;;;;;;;;;26.75;26.75;12.80;99.90;;;;;;5061513;28;11555;-55
2021/12/08 10:20:18;;;;;;;;;26.00;26.00;12.90;99.90;;;;;;5062707;28;11617;-56
2021/12/08 10:23:08;;;;;;;;;24.00;24.00;12.80;99.90;;;;;;5064698;28;11560;-55
2021/12/08 10:25:45;;;;;;;;;24.75;24.75;12.90;99.90;;;;;;5075795;28;12235;-56
2021/12/08 10:28:31;;;;;;;;;12.00;12.00;12.90;99.90;;;;;;5065741;28;11579;-55
2021/12/08 10:31:17;;;;;;;;;28.00;28.00;12.90;99.90;;;;;;5068755;28;11538;-55
2021/12/08 10:34:02;;;;;;;;;21.25;21.25;12.80;99.90;;;;;;5067182;28;11606;-55
2021/12/08 10:36:45;;;;;;;;;25.50;24.00;12.90;99.90;;;;;;5069315;28;11597;-56
2021/12/08 10:39:26;;;;;;;;;20.75;20.75;12.90;99.90;;;;;;5060309;28;11588;-55
2021/12/08 10:41:56;;;;;;;;;20.25;20.25;12.90;99.90;;;;;;5060904;28;11546;-56
2021/12/08 10:45:06;;;;;;;;;24.50;24.50;12.90;99.90;;;;;;5057507;28;11547;-55
2021/12/08 10:47:39;;;;;;;;;18.50;18.50;12.90;99.90;;;;;;5062028;28;11596;-55
2021/12/08 10:56:09;;;;;;;;;27.00;25.25;12.90;99.90;;;;;;5071720;28;11551;-55
2021/12/08 10:58:43;;;;;;;;;23.00;23.00;12.90;99.90;;;;;;5067742;28;11592;-55
2021/12/08 11:01:23;;;;;;;;;22.25;22.25;12.90;99.90;;;;;;5061482;28;11589;-55
2021/12/08 11:04:08;;;;;;;;;21.00;21.00;12.90;99.90;;;;;;5064325;28;12319;-55
2021/12/08 11:06:40;;;;;;;;;26.50;25.50;12.90;99.90;;;;;;5060298;28;11539;-53
2021/12/08 11:09:19;;;;;;;;;24.00;23.25;12.90;99.90;;;;;;5070638;28;11558;-54
2021/12/08 11:11:51;;;;;;;;;26.00;26.00;12.90;99.90;;;;;;5062031;28;11533;-56
2021/12/08 11:14:21;;;;;;;;;21.50;21.50;12.90;99.90;;;;;;5061807;28;11585;-56
2021/12/08 11:16:52;;;;;;;;;23.25;23.25;12.90;99.90;;;;;;5066420;28;12364;-56
2021/12/08 11:19:24;;;;;;;;;22.00;22.00;12.90;99.90;;;;;;5063718;28;11574;-55
2021/12/08 11:22:03;;;;;;;;;26.00;24.75;12.90;99.90;;;;;;5060456;28;11568;-56
2021/12/08 11:24:46;;;;;;;;;24.00;24.00;12.90;99.90;;;;;;5058720;28;12661;-56
2021/12/08 11:27:30;;;;;;;;;23.00;23.00;13.00;99.90;;;;;;5065044;28;11594;-56
2021/12/08 11:30:12;;;;;;;;;24.75;24.75;13.00;99.90;;;;;;5061147;28;11622;-56
2021/12/08 11:32:43;;;;;;;;;23.75;23.75;13.00;99.90;;;;;;5063654;28;11581;-55
2021/12/08 11:35:21;;;;;;;;;25.75;25.75;13.00;99.90;;;;;;5060168;28;11565;-56
2021/12/08 11:38:00;;;;;;;;;29.25;27.50;13.00;99.90;;;;;;5065374;28;11667;-54
2021/12/08 11:40:36;;;;;;;;;26.00;26.00;13.00;99.90;;;;;;5072712;28;11597;-55
2021/12/08 11:43:13;;;;;;;;;26.25;26.25;13.00;99.90;;;;;;5067401;28;11565;-55
2021/12/08 11:45:44;;;;;;;;;26.00;26.00;13.00;99.90;;;;;;5067135;28;11584;-56
2021/12/08 11:48:23;;;;;;;;;31.50;30.25;13.00;99.90;;;;;;5057741;28;11640;-56
2021/12/08 11:51:13;;;;;;;;;28.50;28.50;13.00;99.90;;;;;;5057814;28;12249;-55
2021/12/08 11:53:44;;;;;;;;;28.00;28.00;13.10;99.90;;;;;;5054816;28;11504;-54
2021/12/08 11:56:40;;;;;;;;;33.25;32.50;13.10;99.90;;;;;;5060833;28;11542;-54
2021/12/08 11:59:11;;;;;;;;;26.75;26.75;13.00;99.90;;;;;;5064566;28;11629;-54
2021/12/08 12:01:42;;;;;;;;;33.25;31.75;13.10;99.90;;;;;;5059294;28;11755;-54
2021/12/08 12:04:14;;;;;;;;;28.75;28.75;13.10;99.90;;;;;;5063595;28;11570;-55
2021/12/08 12:06:45;;;;;;;;;27.75;27.75;13.10;99.90;;;;;;5061452;28;11578;-54
2021/12/08 12:09:16;;;;;;;;;31.75;31.50;13.10;99.90;;;;;;5060631;28;11563;-56
2021/12/08 12:11:53;;;;;;;;;31.25;31.25;13.10;99.90;;;;;;5064018;28;11522;-56
2021/12/08 12:14:24;;;;;;;;;32.50;32.00;13.10;99.90;;;;;;5063773;28;11547;-57
2021/12/08 12:16:54;;;;;;;;;32.25;31.75;13.10;99.90;;;;;;5063362;28;11586;-56
2021/12/08 12:19:28;;;;;;;;;27.50;27.50;13.10;99.90;;;;;;5061477;28;11694;-57
2021/12/08 12:22:20;;;;;;;;;30.00;28.25;13.10;99.90;;;;;;5057172;28;12355;-58
2021/12/08 12:25:22;;;;;;;;;26.00;26.00;13.10;99.90;;;;;;5069905;28;11551;-57
2021/12/08 12:28:14;;;;;;;;;30.50;28.00;13.10;99.90;;;;;;5064178;28;11614;-56
2021/12/08 12:31:09;;;;;;;;;32.75;30.00;13.10;99.90;;;;;;5057730;28;11557;-57
2021/12/08 12:33:43;;;;;;;;;24.25;22.50;13.10;99.90;;;;;;5064344;28;11535;-57
2021/12/08 12:36:27;;;;;;;;;25.25;25.25;13.10;99.90;;;;;;5060410;28;11667;-57
2021/12/08 12:39:14;;;;;;;;;29.50;27.00;13.10;99.90;;;;;;5070622;28;11577;-56
2021/12/08 12:41:57;;;;;;;;;21.50;21.50;13.10;99.90;;;;;;5067806;28;12453;-55
2021/12/08 12:44:30;;;;;;;;;24.25;23.50;13.10;99.90;;;;;;5062099;28;11561;-56
2021/12/08 12:47:12;;;;;;;;;26.75;26.75;13.10;99.90;;;;;;5070195;28;11585;-57
2021/12/08 12:49:47;;;;;;;;;26.25;23.25;13.10;99.90;;;;;;5065622;28;11541;-55
2021/12/08 12:52:19;;;;;;;;;26.25;26.25;13.00;99.90;;;;;;5054248;28;11556;-57
2021/12/08 12:55:05;;;;;;;;;22.50;22.50;13.00;99.90;;;;;;5074299;28;11763;-57
2021/12/08 12:58:16;;;;;;;;;22.25;22.25;13.00;99.90;;;;;;5060456;28;11699;-56
2021/12/08 13:01:05;;;;;;;;;25.50;25.50;13.00;99.90;;;;;;5067708;28;11540;-56
2021/12/08 13:03:38;;;;;;;;;25.25;25.25;13.00;99.90;;;;;;5061994;28;11592;-56
2021/12/08 13:06:13;;;;;;;;;27.25;27.25;13.00;99.90;;;;;;5061093;28;11600;-57
2021/12/08 13:08:50;;;;;;;;;24.25;24.25;12.90;99.90;;;;;;5057827;28;11601;-56
2021/12/08 13:11:29;;;;;;;;;20.75;20.75;12.90;99.90;;;;;;5071718;28;11580;-55
2021/12/08 13:14:03;;;;;;;;;23.50;23.50;12.90;99.90;;;;;;5058956;28;11535;-55
2021/12/08 13:16:36;;;;;;;;;23.00;23.00;12.90;99.90;;;;;;5061637;28;11529;-56
2021/12/08 13:19:07;;;;;;;;;24.25;24.25;12.90;99.90;;;;;;5060665;28;11627;-56
2021/12/08 13:21:47;;;;;;;;;25.50;25.50;12.90;99.90;;;;;;5058489;28;11571;-56
2021/12/08 13:24:41;;;;;;;;;23.75;22.75;12.90;99.90;;;;;;5065090;28;12292;-55
2021/12/08 13:27:28;;;;;;;;;31.00;30.00;12.90;99.90;;;;;;5065366;28;11568;-56
2021/12/08 13:30:15;;;;;;;;;24.00;24.00;12.80;99.90;;;;;;5075111;27;11583;-55
2021/12/08 13:32:46;;;;;;;;;26.00;26.00;12.80;99.90;;;;;;5061805;28;11569;-56
2021/12/08 13:35:37;;;;;;;;;28.00;26.50;12.80;99.90;;;;;;5066023;28;11581;-56
2021/12/08 13:38:07;;;;;;;;;27.25;27.25;12.80;99.90;;;;;;5074355;28;11672;-56
2021/12/08 13:40:44;;;;;;;;;29.50;29.00;12.80;99.90;;;;;;5067785;28;11754;-54
2021/12/08 13:43:39;;;;;;;;;25.50;23.25;12.70;99.90;;;;;;5075484;28;11796;-56
2021/12/08 13:46:31;;;;;;;;;22.75;22.50;12.70;99.90;;;;;;5064844;28;11557;-55
2021/12/08 13:49:20;;;;;;;;;26.50;26.50;12.70;99.90;;;;;;5066650;27;11973;-56
2021/12/08 13:52:10;;;;;;;;;28.50;26.75;12.80;99.90;;;;;;5063212;28;11588;-56
2021/12/08 13:54:46;;;;;;;;;24.00;24.00;12.80;99.90;;;;;;5066248;28;11554;-54
2021/12/08 13:57:46;;;;;;;;;30.25;30.25;12.80;99.90;;;;;;5067334;28;11573;-55
2021/12/08 14:00:27;;;;;;;;;28.00;26.25;12.80;99.90;;;;;;5054242;28;11586;-55
2021/12/08 14:03:06;;;;;;;;;27.50;27.50;12.80;99.90;;;;;;5066904;28;11567;-52